createdAt,value
2022-12-23T00:00:56.952Z,17.17
2022-12-23T00:02:08.466Z,15.70
2022-12-23T00:03:20.121Z,14.75
2022-12-23T00:04:31.727Z,15.98
2022-12-23T00:05:43.200Z,12.65
2022-12-23T00:06:54.748Z,14.20
2022-12-23T00:08:06.794Z,13.68
2022-12-23T00:09:18.227Z,15.93
2022-12-23T00:10:29.697Z,14.20
2022-12-23T00:12:01.104Z,13.20
2022-12-23T00:13:30.987Z,12.70
2022-12-23T00:15:00.938Z,13.13
2022-12-23T00:16:13.729Z,10.15
2022-12-23T00:17:25.329Z,12.05
2022-12-23T00:18:38.463Z,10.05
2022-12-23T00:19:49.976Z,14.20
2022-12-23T00:21:08.343Z,12.00
2022-12-23T00:22:40.482Z,13.18
2022-12-23T00:23:52.273Z,11.27
2022-12-23T00:25:03.875Z,11.65
2022-12-23T00:26:16.574Z,10.93
2022-12-23T00:27:32.849Z,10.57
2022-12-23T00:28:47.775Z,10.63
2022-12-23T00:29:59.287Z,9.82
2022-12-23T00:31:11.448Z,9.68
2022-12-23T00:32:23.009Z,9.20
2022-12-23T00:33:36.221Z,8.95
2022-12-23T00:34:47.663Z,9.15
2022-12-23T00:35:59.416Z,9.85
2022-12-23T00:37:11.002Z,9.13
2022-12-23T00:38:42.449Z,9.45
2022-12-23T00:40:12.434Z,8.60
2022-12-23T00:41:42.492Z,6.70
2022-12-23T00:42:53.928Z,7.57
2022-12-23T00:44:05.417Z,7.95
2022-12-23T00:45:16.951Z,7.25
2022-12-23T00:46:28.493Z,9.13
2022-12-23T00:47:58.645Z,8.25
2022-12-23T00:49:30.349Z,8.90
2022-12-23T00:50:41.846Z,7.93
2022-12-23T00:51:53.348Z,9.07
2022-12-23T00:53:05.429Z,8.05
2022-12-23T00:54:17.115Z,8.80
2022-12-23T00:55:28.640Z,9.77
2022-12-23T00:56:40.115Z,7.68
2022-12-23T00:57:51.703Z,7.95
2022-12-23T00:59:03.688Z,9.30
2022-12-23T01:00:15.369Z,7.43
2022-12-23T01:01:45.203Z,8.05
2022-12-23T01:03:15.685Z,10.13
2022-12-23T01:04:45.661Z,7.43
2022-12-23T01:05:57.995Z,9.10
2022-12-23T01:07:09.455Z,7.13
2022-12-23T01:08:20.920Z,7.72
2022-12-23T01:09:32.726Z,7.95
2022-12-23T01:10:44.218Z,8.27
2022-12-23T01:11:55.741Z,8.88
2022-12-23T01:13:07.313Z,7.03
2022-12-23T01:14:19.004Z,12.60
2022-12-23T01:15:30.573Z,26.88
2022-12-23T01:16:42.147Z,21.75
2022-12-23T01:17:53.768Z,15.52
2022-12-23T01:19:05.966Z,14.80
2022-12-23T01:20:17.510Z,13.55
2022-12-23T01:21:29.017Z,11.07
2022-12-23T01:22:40.454Z,17.25
2022-12-23T01:23:51.964Z,12.25
2022-12-23T01:25:03.554Z,11.13
2022-12-23T01:26:15.148Z,9.27
2022-12-23T01:27:26.607Z,9.25
2022-12-23T01:28:38.089Z,9.38
2022-12-23T01:29:49.614Z,10.05
2022-12-23T01:31:02.611Z,9.75
2022-12-23T01:32:14.164Z,9.35
2022-12-23T01:33:26.065Z,9.90
2022-12-23T01:34:37.863Z,7.65
2022-12-23T01:35:49.562Z,9.55
2022-12-23T01:37:01.002Z,10.27
2022-12-23T01:38:12.507Z,10.20
2022-12-23T01:39:23.942Z,10.98
2022-12-23T01:40:39.882Z,9.63
2022-12-23T01:42:09.768Z,8.93
2022-12-23T01:43:21.354Z,10.18
2022-12-23T01:44:51.430Z,9.23
2022-12-23T01:46:03.074Z,11.38
2022-12-23T01:47:21.245Z,10.35
2022-12-23T01:48:32.788Z,10.60
2022-12-23T01:49:44.423Z,10.70
2022-12-23T01:50:58.907Z,10.13
2022-12-23T01:52:11.299Z,10.85
2022-12-23T01:53:22.805Z,9.13
2022-12-23T01:54:35.661Z,10.27
2022-12-23T01:55:59.334Z,10.73
2022-12-23T01:57:11.112Z,9.63
2022-12-23T01:58:36.724Z,11.93
2022-12-23T02:00:06.862Z,8.98
2022-12-23T02:01:37.137Z,10.75
2022-12-23T02:03:09.298Z,8.90
2022-12-23T02:04:23.194Z,7.38
2022-12-23T02:05:34.782Z,10.80
2022-12-23T02:07:05.524Z,10.82
2022-12-23T02:08:35.859Z,9.75
2022-12-23T02:09:47.310Z,9.30
2022-12-23T02:11:09.159Z,9.07
2022-12-23T02:12:29.860Z,9.57
2022-12-23T02:14:04.049Z,8.77
2022-12-23T02:15:46.982Z,9.98
2022-12-23T02:17:04.591Z,7.85
2022-12-23T02:18:27.979Z,10.13
2022-12-23T02:19:45.270Z,7.97
2022-12-23T02:21:02.755Z,7.65
2022-12-23T02:22:23.591Z,6.05
2022-12-23T02:23:37.832Z,7.72
2022-12-23T02:25:18.599Z,5.88
2022-12-23T02:26:39.170Z,6.60
2022-12-23T02:27:50.599Z,8.23
2022-12-23T02:29:04.779Z,6.90
2022-12-23T02:30:24.348Z,7.47
2022-12-23T02:31:54.352Z,7.25
2022-12-23T02:33:08.732Z,8.38
2022-12-23T02:34:23.995Z,7.97
2022-12-23T02:35:54.376Z,6.63
2022-12-23T02:37:23.985Z,5.80
2022-12-23T02:38:54.005Z,7.20
2022-12-23T02:40:20.606Z,5.82
2022-12-23T02:41:38.138Z,6.15
2022-12-23T02:43:06.726Z,5.55
2022-12-23T02:44:34.379Z,6.28
2022-12-23T02:45:49.494Z,5.25
2022-12-23T02:47:05.260Z,6.20
2022-12-23T02:48:20.531Z,6.75
2022-12-23T02:49:36.779Z,6.60
2022-12-23T02:50:48.963Z,7.15
2022-12-23T02:52:03.138Z,10.15
2022-12-23T02:53:18.927Z,8.48
2022-12-23T02:54:32.341Z,9.52
2022-12-23T02:55:45.024Z,6.57
2022-12-23T02:56:57.841Z,6.28
2022-12-23T02:58:11.215Z,6.53
2022-12-23T02:59:27.050Z,7.40
2022-12-23T03:00:39.563Z,5.55
2022-12-23T03:01:51.952Z,6.80
2022-12-23T03:03:03.843Z,5.15
2022-12-23T03:04:15.579Z,7.93
2022-12-23T03:05:27.099Z,16.92
2022-12-23T03:06:43.299Z,10.75
2022-12-23T03:07:56.781Z,9.88
2022-12-23T03:09:08.970Z,8.13
2022-12-23T03:10:26.290Z,7.45
2022-12-23T03:11:40.279Z,6.85
2022-12-23T03:13:15.283Z,7.60
2022-12-23T03:14:26.687Z,7.20
2022-12-23T03:15:42.950Z,7.18
2022-12-23T03:17:12.398Z,6.45
2022-12-23T03:18:23.900Z,6.15
2022-12-23T03:19:35.358Z,5.88
2022-12-23T03:21:05.304Z,4.78
2022-12-23T03:22:24.877Z,5.70
2022-12-23T03:23:43.087Z,7.00
2022-12-23T03:25:01.074Z,6.97
2022-12-23T03:26:18.871Z,6.03
2022-12-23T03:27:30.347Z,6.40
2022-12-23T03:28:41.772Z,6.00
2022-12-23T03:29:53.294Z,4.78
2022-12-23T03:31:06.837Z,5.28
2022-12-23T03:32:19.646Z,5.93
2022-12-23T03:33:36.611Z,6.30
2022-12-23T03:34:50.214Z,4.78
2022-12-23T03:36:04.694Z,5.85
2022-12-23T03:37:17.953Z,4.90
2022-12-23T03:38:31.639Z,4.70
2022-12-23T03:39:59.296Z,5.22
2022-12-23T03:41:16.863Z,4.85
2022-12-23T03:42:34.375Z,5.85
2022-12-23T03:43:50.875Z,6.53
2022-12-23T03:46:41.443Z,4.63
2022-12-23T03:47:59.264Z,6.60
2022-12-23T03:49:26.000Z,4.95
2022-12-23T03:50:38.014Z,4.85
2022-12-23T03:51:53.244Z,5.65
2022-12-23T03:53:10.339Z,7.22
2022-12-23T03:54:24.379Z,6.47
2022-12-23T03:55:45.538Z,6.45
2022-12-23T03:57:01.523Z,8.32
2022-12-23T03:58:21.893Z,6.78
2022-12-23T03:59:35.064Z,9.43
2022-12-23T04:00:56.361Z,8.55
2022-12-23T04:02:11.446Z,7.10
2022-12-23T04:03:31.452Z,7.50
2022-12-23T04:05:01.788Z,8.23
2022-12-23T04:06:16.078Z,8.27
2022-12-23T04:07:32.003Z,7.97
2022-12-23T04:08:44.081Z,8.00
2022-12-23T04:09:55.649Z,7.75
2022-12-23T04:11:07.426Z,8.23
2022-12-23T04:12:19.050Z,10.00
2022-12-23T04:13:30.882Z,7.47
2022-12-23T04:14:49.183Z,10.20
2022-12-23T04:16:01.421Z,6.93
2022-12-23T04:17:12.983Z,8.07
2022-12-23T04:18:24.442Z,8.75
2022-12-23T04:19:35.872Z,8.43
2022-12-23T04:20:47.333Z,9.52
2022-12-23T04:21:58.868Z,9.13
2022-12-23T04:23:10.406Z,9.85
2022-12-23T04:24:21.865Z,9.85
2022-12-23T04:25:33.632Z,9.13
2022-12-23T04:26:45.146Z,8.88
2022-12-23T04:27:56.608Z,10.23
2022-12-23T04:29:08.090Z,9.80
2022-12-23T04:30:19.746Z,9.82
2022-12-23T04:31:31.577Z,9.50
2022-12-23T04:32:43.156Z,8.25
2022-12-23T04:33:54.720Z,6.95
2022-12-23T04:35:06.430Z,6.88
2022-12-23T04:36:18.031Z,9.50
2022-12-23T04:37:29.595Z,8.43
2022-12-23T04:38:41.124Z,6.38
2022-12-23T04:39:52.605Z,8.63
2022-12-23T04:41:04.375Z,6.80
2022-12-23T04:42:15.821Z,6.25
2022-12-23T04:43:27.288Z,6.28
2022-12-23T04:44:38.739Z,7.05
2022-12-23T04:45:51.181Z,8.13
2022-12-23T04:47:03.060Z,7.07
2022-12-23T04:48:14.557Z,7.35
2022-12-23T04:49:26.220Z,7.45
2022-12-23T04:50:37.716Z,7.07
2022-12-23T04:51:49.299Z,6.07
2022-12-23T04:53:00.923Z,5.68
2022-12-23T04:54:12.390Z,6.32
2022-12-23T04:55:23.807Z,7.20
2022-12-23T04:56:35.323Z,8.10
2022-12-23T04:57:46.829Z,9.40
2022-12-23T04:58:58.400Z,16.95
2022-12-23T05:00:10.207Z,37.08
2022-12-23T05:01:21.833Z,23.77
2022-12-23T05:02:33.384Z,21.63
2022-12-23T05:03:44.932Z,15.00
2022-12-23T05:04:56.387Z,12.40
2022-12-23T05:06:08.118Z,12.13
2022-12-23T05:07:19.719Z,11.55
2022-12-23T05:08:31.445Z,13.07
2022-12-23T05:09:42.969Z,11.68
2022-12-23T05:10:54.570Z,8.80
2022-12-23T05:12:06.145Z,8.30
2022-12-23T05:13:17.683Z,9.68
2022-12-23T05:14:29.180Z,13.98
2022-12-23T05:15:40.715Z,16.45
2022-12-23T05:16:52.696Z,17.58
2022-12-23T05:18:04.295Z,19.92
2022-12-23T05:19:15.742Z,34.40
2022-12-23T05:20:29.605Z,29.73
2022-12-23T05:21:41.048Z,31.55
2022-12-23T05:22:52.698Z,34.00
2022-12-23T05:24:04.217Z,29.92
2022-12-23T05:25:15.750Z,31.17
2022-12-23T05:26:27.227Z,33.83
2022-12-23T05:27:38.691Z,26.13
2022-12-23T05:28:50.353Z,23.88
2022-12-23T05:30:02.457Z,20.92
2022-12-23T05:31:14.436Z,19.13
2022-12-23T05:32:25.951Z,20.75
2022-12-23T05:33:37.536Z,21.67
2022-12-23T05:34:49.058Z,22.15
2022-12-23T05:36:01.001Z,17.88
2022-12-23T05:37:12.554Z,20.27
2022-12-23T05:38:24.221Z,20.52
2022-12-23T05:39:35.768Z,20.13
2022-12-23T05:40:47.792Z,18.50
2022-12-23T05:41:59.377Z,18.63
2022-12-23T05:43:10.904Z,19.02
2022-12-23T05:44:22.492Z,16.00
2022-12-23T05:45:37.350Z,13.20
2022-12-23T05:46:48.800Z,12.55
2022-12-23T05:48:00.228Z,14.73
2022-12-23T05:49:11.719Z,18.33
2022-12-23T05:50:23.441Z,15.88
2022-12-23T05:51:34.918Z,15.38
2022-12-23T05:52:46.554Z,18.35
2022-12-23T05:53:58.029Z,14.18
2022-12-23T05:55:09.678Z,13.10
2022-12-23T05:56:21.201Z,12.30
2022-12-23T05:57:32.655Z,13.27
2022-12-23T05:58:44.129Z,14.85
2022-12-23T05:59:55.614Z,18.05
2022-12-23T06:01:07.179Z,15.45
2022-12-23T06:02:18.837Z,17.50
2022-12-23T06:03:30.899Z,14.20
2022-12-23T06:04:42.667Z,13.18
2022-12-23T06:05:54.561Z,11.88
2022-12-23T06:07:06.027Z,13.80
2022-12-23T06:08:17.564Z,11.40
2022-12-23T06:09:29.044Z,11.90
2022-12-23T06:10:40.785Z,11.60
2022-12-23T06:11:52.265Z,10.18
2022-12-23T06:13:03.689Z,13.35
2022-12-23T06:14:15.258Z,11.63
2022-12-23T06:15:26.870Z,10.77
2022-12-23T06:16:38.448Z,11.63
2022-12-23T06:17:49.891Z,9.55
2022-12-23T06:19:01.393Z,9.68
2022-12-23T06:20:20.060Z,9.63
2022-12-23T06:21:32.455Z,10.45
2022-12-23T06:22:43.895Z,12.65
2022-12-23T06:23:55.497Z,11.85
2022-12-23T06:25:07.361Z,11.95
2022-12-23T06:26:18.963Z,13.38
2022-12-23T06:27:30.399Z,11.98
2022-12-23T06:28:41.886Z,12.40
2022-12-23T06:29:53.384Z,13.75
2022-12-23T06:31:04.949Z,18.20
2022-12-23T06:32:16.463Z,18.83
2022-12-23T06:33:27.949Z,24.60
2022-12-23T06:34:39.418Z,25.20
2022-12-23T06:35:50.908Z,20.95
2022-12-23T06:37:02.534Z,19.55
2022-12-23T06:38:14.047Z,19.13
2022-12-23T06:39:25.621Z,21.27
2022-12-23T06:40:37.581Z,20.13
2022-12-23T06:41:49.058Z,20.85
2022-12-23T06:43:00.518Z,19.02
2022-12-23T06:44:12.038Z,19.33
2022-12-23T06:45:23.581Z,15.15
2022-12-23T06:46:35.094Z,10.82
2022-12-23T06:47:46.573Z,10.75
2022-12-23T06:48:58.152Z,8.75
2022-12-23T06:50:10.085Z,9.38
2022-12-23T06:51:21.697Z,9.63
2022-12-23T06:52:33.171Z,10.65
2022-12-23T06:53:44.662Z,8.23
2022-12-23T06:54:56.156Z,8.55
2022-12-23T06:56:07.682Z,9.80
2022-12-23T06:57:19.156Z,10.73
2022-12-23T06:58:30.612Z,9.70
2022-12-23T06:59:42.117Z,11.38
2022-12-23T07:00:53.650Z,9.35
2022-12-23T07:02:05.933Z,9.52
2022-12-23T07:03:17.605Z,16.25
2022-12-23T07:04:29.194Z,10.90
2022-12-23T07:05:40.824Z,11.70
2022-12-23T07:06:52.282Z,16.02
2022-12-23T07:08:03.864Z,13.77
2022-12-23T07:09:15.409Z,22.27
2022-12-23T07:10:26.865Z,24.20
2022-12-23T07:11:38.443Z,18.05
2022-12-23T07:12:51.089Z,18.77
2022-12-23T07:14:02.619Z,16.15
2022-12-23T07:15:14.100Z,19.52
2022-12-23T07:16:25.652Z,19.85
2022-12-23T07:17:37.202Z,19.60
2022-12-23T07:18:48.665Z,20.98
2022-12-23T07:20:00.223Z,19.73
2022-12-23T07:21:21.237Z,21.95
2022-12-23T07:22:36.274Z,20.25
2022-12-23T07:23:48.066Z,20.60
2022-12-23T07:24:59.593Z,19.13
2022-12-23T07:26:11.084Z,17.27
2022-12-23T07:27:22.544Z,18.42
2022-12-23T07:28:34.070Z,19.95
2022-12-23T07:29:45.714Z,17.67
2022-12-23T07:30:57.175Z,17.25
2022-12-23T07:32:08.889Z,19.38
2022-12-23T07:33:20.431Z,18.42
2022-12-23T07:34:31.950Z,18.33
2022-12-23T07:35:43.740Z,20.92
2022-12-23T07:36:55.683Z,19.92
2022-12-23T07:38:07.144Z,19.08
2022-12-23T07:39:18.676Z,18.65
2022-12-23T07:40:30.207Z,16.50
2022-12-23T07:41:41.742Z,15.20
2022-12-23T07:42:59.679Z,18.10
2022-12-23T07:44:11.220Z,18.42
2022-12-23T07:45:22.757Z,15.45
2022-12-23T07:46:34.386Z,16.30
2022-12-23T07:47:46.002Z,13.30
2022-12-23T07:48:57.437Z,15.30
2022-12-23T07:50:09.292Z,17.73
2022-12-23T07:51:21.057Z,18.92
2022-12-23T07:52:32.484Z,19.75
2022-12-23T07:53:44.022Z,22.10
2022-12-23T07:54:55.760Z,23.98
2022-12-23T07:56:07.411Z,24.30
2022-12-23T07:57:19.127Z,26.65
2022-12-23T07:58:30.566Z,23.20
2022-12-23T07:59:42.053Z,21.38
2022-12-23T08:01:00.836Z,21.27
2022-12-23T08:02:12.448Z,16.95
2022-12-23T08:03:24.163Z,15.82
2022-12-23T08:04:38.425Z,13.15
2022-12-23T08:06:05.057Z,11.63
2022-12-23T08:07:16.549Z,11.90
2022-12-23T08:08:28.203Z,15.13
2022-12-23T08:09:39.648Z,9.60
2022-12-23T08:10:51.154Z,12.38
2022-12-23T08:12:02.690Z,10.93
2022-12-23T08:13:14.159Z,10.35
2022-12-23T08:14:25.632Z,16.05
2022-12-23T08:15:37.160Z,11.43
2022-12-23T08:16:48.883Z,10.43
2022-12-23T08:18:00.388Z,10.50
2022-12-23T08:19:11.817Z,9.65
2022-12-23T08:20:23.373Z,11.02
2022-12-23T08:21:34.976Z,9.80
2022-12-23T08:22:46.408Z,12.40
2022-12-23T08:23:57.884Z,11.88
2022-12-23T08:25:09.531Z,10.30
2022-12-23T08:26:22.121Z,13.10
2022-12-23T08:27:33.679Z,10.95
2022-12-23T08:28:45.656Z,12.02
2022-12-23T08:29:57.129Z,14.73
2022-12-23T08:31:13.410Z,13.30
2022-12-23T08:32:28.216Z,11.05
2022-12-23T08:33:40.439Z,12.70
2022-12-23T08:34:51.866Z,13.32
2022-12-23T08:36:03.448Z,12.85
2022-12-23T08:37:15.142Z,12.30
2022-12-23T08:38:28.188Z,12.38
2022-12-23T08:39:39.654Z,13.00
2022-12-23T08:40:51.134Z,13.75
2022-12-23T08:42:02.699Z,29.52
2022-12-23T08:43:14.173Z,22.13
2022-12-23T08:44:27.960Z,20.05
2022-12-23T08:45:39.580Z,15.00
2022-12-23T08:46:51.069Z,15.23
2022-12-23T08:48:02.724Z,15.75
2022-12-23T08:49:14.252Z,16.73
2022-12-23T08:50:25.786Z,14.15
2022-12-23T08:51:38.131Z,12.35
2022-12-23T08:52:50.267Z,13.40
2022-12-23T08:54:01.859Z,18.65
2022-12-23T08:55:13.419Z,19.83
2022-12-23T08:56:26.161Z,15.82
2022-12-23T08:57:37.605Z,16.08
2022-12-23T08:58:50.313Z,14.63
2022-12-23T09:00:04.180Z,14.98
2022-12-23T09:01:16.968Z,14.07
2022-12-23T09:02:28.686Z,14.38
2022-12-23T09:03:40.552Z,12.93
2022-12-23T09:04:52.067Z,25.77
2022-12-23T09:06:04.734Z,17.50
2022-12-23T09:07:16.164Z,18.95
2022-12-23T09:08:27.606Z,14.75
2022-12-23T09:09:39.136Z,12.68
2022-12-23T09:10:50.681Z,15.65
2022-12-23T09:12:02.209Z,14.98
2022-12-23T09:13:19.980Z,12.93
2022-12-23T09:14:36.559Z,12.90
2022-12-23T09:15:48.650Z,11.68
2022-12-23T09:17:00.198Z,11.40
2022-12-23T09:18:11.970Z,13.10
2022-12-23T09:19:23.423Z,11.85
2022-12-23T09:20:34.916Z,12.70
2022-12-23T09:21:46.566Z,11.93
2022-12-23T09:22:59.467Z,12.57
2022-12-23T09:24:10.991Z,13.68
2022-12-23T09:25:22.422Z,11.82
2022-12-23T09:26:33.915Z,11.85
2022-12-23T09:27:45.828Z,12.63
2022-12-23T09:28:57.571Z,11.63
2022-12-23T09:30:10.391Z,12.13
2022-12-23T09:31:22.653Z,11.60
2022-12-23T09:32:34.307Z,11.85
2022-12-23T09:33:49.679Z,13.27
2022-12-23T09:35:01.174Z,12.52
2022-12-23T09:36:12.633Z,13.60
2022-12-23T09:37:24.147Z,14.40
2022-12-23T09:38:36.175Z,14.57
2022-12-23T09:39:47.627Z,13.75
2022-12-23T09:41:22.119Z,12.82
2022-12-23T09:42:52.102Z,13.77
2022-12-23T09:44:22.271Z,13.63
2022-12-23T09:45:54.443Z,14.68
2022-12-23T09:47:09.697Z,13.85
2022-12-23T09:48:25.501Z,14.27
2022-12-23T09:49:39.142Z,12.07
2022-12-23T09:50:50.613Z,14.68
2022-12-23T09:52:03.808Z,13.15
2022-12-23T09:53:19.682Z,18.05
2022-12-23T09:54:37.593Z,14.77
2022-12-23T09:55:49.005Z,14.05
2022-12-23T09:57:15.801Z,14.15
2022-12-23T09:58:32.945Z,14.18
2022-12-23T09:59:47.236Z,12.68
2022-12-23T10:01:10.926Z,13.38
2022-12-23T10:02:37.198Z,10.75
2022-12-23T10:04:07.352Z,11.25
2022-12-23T10:05:21.914Z,12.85
2022-12-23T10:06:34.236Z,11.55
2022-12-23T10:07:51.817Z,11.63
2022-12-23T10:09:04.522Z,11.98
2022-12-23T10:10:34.571Z,9.55
2022-12-23T10:11:49.706Z,12.18
2022-12-23T10:13:02.130Z,10.57
2022-12-23T10:14:20.536Z,11.00
2022-12-23T10:15:32.051Z,11.65
2022-12-23T10:16:45.538Z,10.98
2022-12-23T10:18:05.124Z,12.02
2022-12-23T10:19:22.104Z,13.18
2022-12-23T10:20:39.457Z,13.35
2022-12-23T10:22:14.075Z,12.27
2022-12-23T10:23:33.103Z,11.07
2022-12-23T10:24:46.244Z,9.18
2022-12-23T10:25:57.857Z,10.05
2022-12-23T10:27:23.094Z,9.45
2022-12-23T10:28:34.553Z,8.95
2022-12-23T10:29:45.999Z,11.25
2022-12-23T10:32:39.282Z,9.15
2022-12-23T10:34:02.329Z,8.95
2022-12-23T10:35:32.547Z,11.20
2022-12-23T10:36:46.794Z,8.20
2022-12-23T10:38:03.086Z,9.00
2022-12-23T10:39:21.929Z,9.20
2022-12-23T10:40:39.973Z,8.38
2022-12-23T10:41:57.435Z,8.75
2022-12-23T10:43:13.833Z,8.38
2022-12-23T10:44:25.360Z,8.07
2022-12-23T10:45:39.836Z,8.25
2022-12-23T10:47:09.675Z,8.57
2022-12-23T10:48:36.193Z,8.27
2022-12-23T10:50:06.770Z,8.40
2022-12-23T10:51:21.279Z,8.18
2022-12-23T10:52:35.531Z,7.90
2022-12-23T10:53:48.007Z,7.97
2022-12-23T10:54:59.488Z,8.18
2022-12-23T10:56:11.220Z,9.80
2022-12-23T10:57:23.729Z,9.50
2022-12-23T10:58:37.121Z,9.65
2022-12-23T10:59:48.632Z,9.23
2022-12-23T11:01:06.983Z,10.20
2022-12-23T11:02:23.572Z,7.70
2022-12-23T11:03:43.286Z,8.20
2022-12-23T11:04:54.853Z,10.77
2022-12-23T11:06:07.483Z,9.52
2022-12-23T11:08:56.071Z,8.95
2022-12-23T11:10:13.286Z,10.30
2022-12-23T11:11:24.774Z,10.65
2022-12-23T11:12:43.965Z,12.05
2022-12-23T11:13:55.488Z,18.00
2022-12-23T11:15:24.266Z,23.33
2022-12-23T11:16:44.912Z,17.17
2022-12-23T11:18:02.561Z,18.48
2022-12-23T11:19:15.151Z,15.48
2022-12-23T11:20:26.820Z,14.55
2022-12-23T11:21:38.359Z,13.73
2022-12-23T11:22:52.513Z,13.75
2022-12-23T11:24:17.919Z,12.85
2022-12-23T11:25:40.564Z,10.40
2022-12-23T11:27:19.122Z,10.35
2022-12-23T11:28:32.031Z,8.30
2022-12-23T11:29:51.800Z,10.10
2022-12-23T11:31:09.584Z,10.10
2022-12-23T11:32:23.348Z,11.35
2022-12-23T11:33:39.984Z,11.82
2022-12-23T11:34:51.737Z,10.68
2022-12-23T11:36:08.176Z,9.60
2022-12-23T11:37:35.073Z,9.63
2022-12-23T11:39:04.577Z,10.23
2022-12-23T11:40:22.117Z,11.70
2022-12-23T11:41:38.590Z,11.40
2022-12-23T11:42:55.277Z,11.75
2022-12-23T11:44:15.442Z,9.73
2022-12-23T11:45:28.622Z,7.95
2022-12-23T11:46:40.186Z,8.35
2022-12-23T11:47:52.267Z,7.72
2022-12-23T11:49:15.366Z,8.60
2022-12-23T11:50:37.082Z,8.10
2022-12-23T11:51:59.977Z,6.88
2022-12-23T11:53:21.683Z,8.27
2022-12-23T11:54:33.664Z,12.07
2022-12-23T11:55:48.377Z,10.77
2022-12-23T11:57:01.872Z,7.38
2022-12-23T11:58:17.189Z,8.32
2022-12-23T11:59:55.013Z,7.95
2022-12-23T12:01:15.863Z,8.68
2022-12-23T12:02:33.283Z,8.15
2022-12-23T12:03:47.245Z,8.57
2022-12-23T12:05:06.991Z,7.03
2022-12-23T12:06:19.613Z,7.38
2022-12-23T12:07:31.539Z,6.57
2022-12-23T12:08:43.257Z,7.75
2022-12-23T12:09:57.782Z,7.15
2022-12-23T12:11:14.913Z,8.60
2022-12-23T12:12:27.743Z,7.45
2022-12-23T12:13:40.869Z,9.25
2022-12-23T12:14:54.688Z,8.27
2022-12-23T12:16:25.269Z,9.07
2022-12-23T12:17:40.805Z,11.02
2022-12-23T12:18:57.078Z,9.52
2022-12-23T12:20:26.302Z,10.10
2022-12-23T12:21:38.556Z,9.90
2022-12-23T12:22:57.624Z,9.90
2022-12-23T12:24:32.199Z,8.05
2022-12-23T12:25:46.966Z,7.28
2022-12-23T12:27:04.962Z,7.55
2022-12-23T12:28:20.300Z,8.20
2022-12-23T12:29:44.422Z,7.63
2022-12-23T12:30:58.686Z,8.73
2022-12-23T12:32:22.781Z,8.80
2022-12-23T12:33:49.165Z,7.93
2022-12-23T12:35:06.527Z,7.20
2022-12-23T12:36:20.828Z,8.25
2022-12-23T12:37:39.754Z,8.77
2022-12-23T12:38:52.569Z,8.48
2022-12-23T12:40:13.066Z,8.48
2022-12-23T12:41:32.877Z,8.40
2022-12-23T12:42:46.565Z,6.15
2022-12-23T12:44:03.158Z,9.60
2022-12-23T12:45:22.242Z,6.63
2022-12-23T12:46:57.948Z,7.30
2022-12-23T12:48:28.144Z,6.47
2022-12-23T12:49:51.350Z,6.82
2022-12-23T12:51:03.129Z,7.25
2022-12-23T12:52:16.323Z,7.40
2022-12-23T12:53:28.400Z,5.82
2022-12-23T12:54:50.835Z,7.55
2022-12-23T12:56:13.093Z,7.82
2022-12-23T12:57:25.062Z,6.20
2022-12-23T12:58:38.397Z,6.57
2022-12-23T12:59:51.456Z,7.85
2022-12-23T13:01:03.321Z,5.97
2022-12-23T13:02:18.010Z,7.65
2022-12-23T13:03:29.529Z,7.65
2022-12-23T13:04:40.980Z,8.70
2022-12-23T13:05:58.453Z,10.80
2022-12-23T13:07:19.512Z,11.63
2022-12-23T13:08:48.876Z,12.38
2022-12-23T13:10:19.151Z,10.50
2022-12-23T13:12:06.117Z,12.15
2022-12-23T13:13:20.585Z,10.10
2022-12-23T13:14:44.147Z,9.57
2022-12-23T13:16:01.591Z,10.63
2022-12-23T13:17:26.248Z,10.45
2022-12-23T13:18:40.862Z,10.63
2022-12-23T13:20:16.318Z,9.13
2022-12-23T13:21:50.438Z,7.80
2022-12-23T13:23:34.254Z,7.28
2022-12-23T13:24:38.834Z,7.45
2022-12-23T13:25:54.779Z,8.95
2022-12-23T13:27:35.600Z,7.68
2022-12-23T13:28:54.654Z,9.65
2022-12-23T13:30:12.381Z,10.27
2022-12-23T13:31:30.640Z,13.48
2022-12-23T13:32:47.963Z,22.92
2022-12-23T13:34:19.993Z,60.97
2022-12-23T13:35:33.403Z,61.78
2022-12-23T13:37:03.443Z,68.78
2022-12-23T13:38:33.765Z,62.15
2022-12-23T13:39:45.217Z,51.58
2022-12-23T13:41:10.405Z,100.88
2022-12-23T13:42:33.872Z,49.25
2022-12-23T13:43:47.602Z,50.78
2022-12-23T13:45:00.845Z,35.85
2022-12-23T13:46:19.832Z,35.88
2022-12-23T13:47:45.081Z,29.77
2022-12-23T13:49:06.528Z,37.63
2022-12-23T13:50:26.612Z,47.60
2022-12-23T13:51:57.716Z,70.75
2022-12-23T13:53:27.830Z,41.78
2022-12-23T13:54:54.563Z,20.88
2022-12-23T13:56:14.038Z,18.98
2022-12-23T13:57:44.637Z,19.60
2022-12-23T13:58:56.615Z,24.90
2022-12-23T14:00:17.268Z,22.38
2022-12-23T14:01:34.028Z,28.15
2022-12-23T14:02:50.720Z,17.95
2022-12-23T14:04:21.151Z,21.27
2022-12-23T14:05:32.632Z,16.25
2022-12-23T14:06:44.946Z,14.88
2022-12-23T14:07:57.849Z,18.77
2022-12-23T14:09:12.697Z,15.65
2022-12-23T14:10:24.599Z,11.60
2022-12-23T14:11:36.775Z,17.50
2022-12-23T14:12:49.994Z,20.10
2022-12-23T14:14:05.678Z,14.13
2022-12-23T14:15:42.834Z,15.23
2022-12-23T14:17:17.383Z,15.85
2022-12-23T14:18:47.382Z,21.40
2022-12-23T14:20:19.830Z,22.65
2022-12-23T14:21:50.414Z,31.17
2022-12-23T14:23:01.963Z,35.50
2022-12-23T14:24:43.023Z,26.02
2022-12-23T14:26:01.630Z,22.20
2022-12-23T14:27:39.382Z,20.38
2022-12-23T14:29:02.932Z,17.40
2022-12-23T14:30:21.896Z,32.42
2022-12-23T14:31:33.508Z,39.30
2022-12-23T14:32:47.233Z,40.75
2022-12-23T14:34:04.128Z,44.88
2022-12-23T14:35:16.534Z,43.40
2022-12-23T14:36:28.831Z,39.90
2022-12-23T14:37:40.336Z,29.55
2022-12-23T14:39:25.453Z,26.52
2022-12-23T14:40:37.050Z,19.80
2022-12-23T14:41:50.690Z,22.98
2022-12-23T14:43:20.780Z,15.95
2022-12-23T14:44:38.137Z,16.15
2022-12-23T14:45:50.982Z,14.82
2022-12-23T14:47:03.911Z,16.23
2022-12-23T14:48:33.725Z,11.23
2022-12-23T14:49:45.360Z,14.45
2022-12-23T14:50:59.536Z,14.10
2022-12-23T14:52:29.415Z,11.57
2022-12-23T14:53:53.993Z,12.45
2022-12-23T14:55:41.047Z,13.02
2022-12-23T14:57:00.842Z,15.60
2022-12-23T14:58:18.079Z,20.45
2022-12-23T14:59:38.941Z,24.80
2022-12-23T15:00:52.598Z,18.20
2022-12-23T15:02:14.763Z,20.48
2022-12-23T15:03:27.179Z,18.52
2022-12-23T15:04:48.031Z,17.63
2022-12-23T15:06:03.474Z,15.20
2022-12-23T15:07:33.713Z,16.90
2022-12-23T15:08:45.941Z,13.93
2022-12-23T15:10:01.326Z,11.15
2022-12-23T15:11:22.178Z,10.43
2022-12-23T15:12:38.008Z,11.85
2022-12-23T15:13:51.119Z,9.32
2022-12-23T15:15:05.466Z,10.50
2022-12-23T15:16:17.842Z,8.98
2022-12-23T15:17:31.244Z,7.53
2022-12-23T15:18:52.346Z,9.00
2022-12-23T15:20:04.803Z,7.70
2022-12-23T15:21:16.496Z,9.73
2022-12-23T15:22:32.677Z,6.00
2022-12-23T15:23:50.618Z,8.43
2022-12-23T15:25:02.341Z,8.35
2022-12-23T15:26:13.971Z,7.00
2022-12-23T15:27:27.800Z,7.90
2022-12-23T15:28:41.581Z,7.75
2022-12-23T15:29:53.685Z,5.82
2022-12-23T15:31:05.937Z,6.80
2022-12-23T15:32:18.367Z,7.43
2022-12-23T15:35:05.118Z,10.48
2022-12-23T15:36:22.914Z,8.85
2022-12-23T15:37:34.721Z,7.85
2022-12-23T15:38:46.563Z,9.88
2022-12-23T15:40:09.612Z,10.85
2022-12-23T15:41:23.386Z,7.70
2022-12-23T15:42:35.932Z,10.43
2022-12-23T15:43:47.581Z,9.02
2022-12-23T15:45:00.126Z,10.40
2022-12-23T15:46:25.025Z,15.60
2022-12-23T15:47:42.412Z,12.70
2022-12-23T15:48:53.999Z,13.73
2022-12-23T15:50:12.561Z,15.80
2022-12-23T15:51:49.464Z,13.77
2022-12-23T15:52:57.541Z,20.38
2022-12-23T15:54:14.643Z,15.70
2022-12-23T15:55:31.483Z,16.58
2022-12-23T15:56:46.997Z,22.88
2022-12-23T15:57:58.964Z,21.83
2022-12-23T15:59:16.442Z,20.17
2022-12-23T16:00:27.993Z,20.05
2022-12-23T16:01:39.992Z,18.67
2022-12-23T16:03:02.479Z,17.40
2022-12-23T16:04:28.587Z,15.80
2022-12-23T16:05:42.709Z,17.23
2022-12-23T16:06:55.489Z,18.88
2022-12-23T16:08:10.823Z,15.82
2022-12-23T16:09:33.453Z,18.58
2022-12-23T16:11:03.604Z,24.33
2022-12-23T16:12:25.364Z,25.45
2022-12-23T16:13:41.465Z,21.40
2022-12-23T16:14:58.226Z,18.80
2022-12-23T16:16:29.115Z,17.27
2022-12-23T16:17:41.441Z,12.50
2022-12-23T16:18:53.493Z,14.15
2022-12-23T16:20:17.480Z,16.85
2022-12-23T16:21:36.419Z,16.02
2022-12-23T16:22:51.640Z,17.00
2022-12-23T16:24:08.497Z,17.30
2022-12-23T16:25:25.403Z,16.00
2022-12-23T16:26:43.418Z,14.48
2022-12-23T16:27:58.635Z,16.00
2022-12-23T16:29:10.390Z,12.25
2022-12-23T16:30:32.531Z,13.43
2022-12-23T16:31:52.162Z,13.80
2022-12-23T16:33:22.998Z,12.82
2022-12-23T16:34:34.466Z,10.55
2022-12-23T16:35:46.069Z,11.30
2022-12-23T16:36:57.562Z,8.02